createdAt,value
2023-09-02T00:01:01.102Z,79.69
2023-09-02T00:03:28.820Z,80.05
2023-09-02T00:05:56.468Z,79.16
2023-09-02T00:08:23.814Z,78.89
2023-09-02T00:10:51.450Z,78.78
2023-09-02T00:13:19.059Z,77.90
2023-09-02T00:15:46.605Z,78.11
2023-09-02T00:18:14.377Z,77.69
2023-09-02T00:20:41.720Z,78.89
2023-09-02T00:23:08.973Z,78.72
2023-09-02T00:25:36.624Z,79.25
2023-09-02T00:28:04.149Z,79.94
2023-09-02T00:30:31.503Z,80.39
2023-09-02T00:32:59.216Z,80.65
2023-09-02T00:35:26.657Z,80.00
2023-09-02T00:37:54.451Z,79.51
2023-09-02T00:40:23.773Z,79.67
2023-09-02T00:42:51.845Z,79.28
2023-09-02T00:45:23.261Z,79.16
2023-09-02T00:47:51.977Z,80.41
2023-09-02T00:50:19.339Z,79.94
2023-09-02T00:52:48.260Z,80.02
2023-09-02T00:55:16.717Z,79.67
2023-09-02T00:57:45.522Z,80.80
2023-09-02T01:00:14.686Z,80.61
2023-09-02T01:02:43.875Z,80.88
2023-09-02T01:05:11.431Z,82.67
2023-09-02T01:07:40.464Z,82.93
2023-09-02T01:10:09.279Z,82.68
2023-09-02T01:12:36.782Z,82.44
2023-09-02T01:15:04.840Z,82.20
2023-09-02T01:17:33.608Z,81.55
2023-09-02T01:20:04.785Z,82.18
2023-09-02T01:22:43.138Z,81.54
2023-09-02T01:25:19.930Z,81.97
2023-09-02T01:28:01.202Z,81.67
2023-09-02T01:30:34.389Z,81.69
2023-09-02T01:33:04.720Z,81.33
2023-09-02T01:35:35.905Z,81.63
2023-09-02T01:38:05.325Z,81.45
2023-09-02T01:40:34.482Z,81.57
2023-09-02T01:43:03.812Z,82.27
2023-09-02T01:45:35.421Z,82.15
2023-09-02T01:48:04.747Z,82.56
2023-09-02T01:50:34.178Z,82.52
2023-09-02T01:53:02.727Z,84.86
2023-09-02T01:55:30.608Z,84.74
2023-09-02T01:57:59.358Z,85.44
2023-09-02T02:00:26.865Z,84.73
2023-09-02T02:02:55.969Z,83.83
2023-09-02T02:05:38.942Z,84.23
2023-09-02T02:08:13.300Z,85.38
2023-09-02T02:10:43.127Z,84.49
2023-09-02T02:13:10.805Z,85.25
2023-09-02T02:15:38.124Z,84.22
2023-09-02T02:18:05.958Z,83.95
2023-09-02T02:20:44.039Z,83.79
2023-09-02T02:23:11.939Z,83.46
2023-09-02T02:25:39.601Z,84.33
2023-09-02T02:28:07.800Z,84.37
2023-09-02T02:30:35.066Z,83.91
2023-09-02T02:33:02.837Z,84.75
2023-09-02T02:35:33.520Z,85.44
2023-09-02T02:38:01.135Z,84.81
2023-09-02T02:40:29.030Z,86.14
2023-09-02T02:42:56.309Z,86.81
2023-09-02T02:45:23.762Z,87.77
2023-09-02T02:47:51.507Z,86.94
2023-09-02T02:50:18.858Z,86.07
2023-09-02T02:52:46.467Z,85.78
2023-09-02T02:55:14.309Z,84.81
2023-09-02T02:57:41.806Z,84.58
2023-09-02T03:00:10.393Z,84.71
2023-09-02T03:02:38.349Z,85.78
2023-09-02T03:05:06.222Z,85.77
2023-09-02T03:07:34.621Z,86.55
2023-09-02T03:10:02.437Z,86.08
2023-09-02T03:12:30.682Z,85.74
2023-09-02T03:14:58.485Z,86.08
2023-09-02T03:17:26.270Z,86.05
2023-09-02T03:19:53.800Z,86.73
2023-09-02T03:22:21.302Z,85.90
2023-09-02T03:24:55.729Z,85.46
2023-09-02T03:27:23.986Z,85.52
2023-09-02T03:29:52.865Z,84.96
2023-09-02T03:32:20.274Z,85.98
2023-09-02T03:34:47.807Z,87.11
2023-09-02T03:37:15.488Z,86.42
2023-09-02T03:39:42.974Z,86.54
2023-09-02T03:42:11.362Z,85.24
2023-09-02T03:44:39.062Z,83.90
2023-09-02T03:47:06.566Z,84.42
2023-09-02T03:49:33.983Z,83.79
2023-09-02T03:52:02.306Z,84.40
2023-09-02T03:54:29.858Z,84.75
2023-09-02T03:56:57.378Z,84.71
2023-09-02T03:59:25.391Z,84.71
2023-09-02T04:01:52.765Z,84.84
2023-09-02T04:04:20.758Z,85.31
2023-09-02T04:06:48.157Z,85.65
2023-09-02T04:09:16.320Z,85.68
2023-09-02T04:11:44.769Z,85.37
2023-09-02T04:14:12.061Z,85.83
2023-09-02T04:16:39.952Z,85.72
2023-09-02T04:19:07.782Z,84.43
2023-09-02T04:21:35.189Z,85.13
2023-09-02T04:24:02.696Z,85.45
2023-09-02T04:26:30.443Z,86.08
2023-09-02T04:28:57.975Z,87.79
2023-09-02T04:31:25.641Z,88.60
2023-09-02T04:33:53.730Z,87.86
2023-09-02T04:36:21.293Z,85.75
2023-09-02T04:38:48.649Z,85.29
2023-09-02T04:41:17.610Z,86.74
2023-09-02T04:43:45.411Z,86.48
2023-09-02T04:46:13.179Z,88.81
2023-09-02T04:48:43.415Z,88.61
2023-09-02T04:51:11.821Z,89.38
2023-09-02T04:53:39.390Z,89.18
2023-09-02T04:56:07.421Z,89.59
2023-09-02T04:58:35.168Z,87.90
2023-09-02T05:01:13.888Z,87.90
2023-09-02T05:03:41.869Z,87.49
2023-09-02T05:06:11.994Z,86.75
2023-09-02T05:08:40.030Z,86.48
2023-09-02T05:11:08.621Z,86.91
2023-09-02T05:13:36.293Z,88.65
2023-09-02T05:16:04.176Z,87.70
2023-09-02T05:18:31.876Z,88.49
2023-09-02T05:20:59.706Z,88.30
2023-09-02T05:23:27.088Z,87.61
2023-09-02T05:25:56.531Z,88.59
2023-09-02T05:28:25.092Z,88.39
2023-09-02T05:30:52.742Z,89.14
2023-09-02T05:33:20.935Z,87.30
2023-09-02T05:35:48.601Z,86.95
2023-09-02T05:38:15.946Z,86.87
2023-09-02T05:40:43.857Z,87.15
2023-09-02T05:43:11.215Z,87.03
2023-09-02T05:45:38.643Z,85.94
2023-09-02T05:48:07.086Z,85.83
2023-09-02T05:50:34.530Z,86.96
2023-09-02T05:53:02.048Z,85.49
2023-09-02T05:55:29.743Z,84.80
2023-09-02T05:57:57.103Z,84.97
2023-09-02T06:00:24.499Z,83.99
2023-09-02T06:02:52.436Z,83.22
2023-09-02T06:05:19.841Z,82.61
2023-09-02T06:07:47.174Z,81.20
2023-09-02T06:10:14.919Z,80.75
2023-09-02T06:12:42.348Z,79.61
2023-09-02T06:15:10.266Z,79.49
2023-09-02T06:17:37.948Z,78.55
2023-09-02T06:20:05.967Z,77.14
2023-09-02T06:22:33.426Z,76.64
2023-09-02T06:25:01.440Z,78.12
2023-09-02T06:27:29.804Z,76.76
2023-09-02T06:29:57.102Z,75.87
2023-09-02T06:32:25.651Z,74.38
2023-09-02T06:34:56.202Z,75.02
2023-09-02T06:37:23.584Z,76.03
2023-09-02T06:39:56.995Z,74.04
2023-09-02T06:42:24.717Z,73.51
2023-09-02T06:44:55.740Z,72.32
2023-09-02T06:47:23.285Z,71.94
2023-09-02T06:49:50.962Z,71.05
2023-09-02T06:52:18.854Z,72.16
2023-09-02T06:54:50.148Z,71.90
2023-09-02T06:57:17.772Z,70.30
2023-09-02T06:59:45.481Z,70.29
2023-09-02T07:02:12.816Z,69.77
2023-09-02T07:04:40.300Z,69.13
2023-09-02T07:07:08.039Z,68.64
2023-09-02T07:09:36.192Z,68.39
2023-09-02T07:12:03.745Z,63.61
2023-09-02T07:14:31.351Z,63.62
2023-09-02T07:16:58.846Z,64.61
2023-09-02T07:19:26.265Z,61.35
2023-09-02T07:21:53.917Z,61.05
2023-09-02T07:24:21.210Z,59.60
2023-09-02T07:26:48.617Z,57.90
2023-09-02T07:29:16.959Z,57.69
2023-09-02T07:31:44.465Z,57.02
2023-09-02T07:34:12.268Z,56.78
2023-09-02T07:36:40.259Z,56.75
2023-09-02T07:39:07.654Z,55.32
2023-09-02T07:41:35.027Z,55.54
2023-09-02T07:44:02.693Z,53.58
2023-09-02T07:46:30.007Z,53.83
2023-09-02T07:48:57.277Z,52.66
2023-09-02T07:51:25.026Z,53.54
2023-09-02T07:53:52.448Z,52.86
2023-09-02T07:56:19.838Z,53.89
2023-09-02T07:58:49.745Z,51.72
2023-09-02T08:01:17.111Z,52.42
2023-09-02T08:03:44.852Z,51.44
2023-09-02T08:06:12.341Z,50.56
2023-09-02T08:08:39.761Z,50.48
2023-09-02T08:11:07.767Z,51.82
2023-09-02T08:13:35.462Z,51.59
2023-09-02T08:16:08.778Z,51.71
2023-09-02T08:18:36.833Z,51.23
2023-09-02T08:21:11.154Z,49.61
2023-09-02T08:23:40.368Z,50.31
2023-09-02T08:26:13.673Z,49.37
2023-09-02T08:28:45.858Z,49.33
2023-09-02T08:31:19.507Z,48.50
2023-09-02T08:33:47.406Z,48.97
2023-09-02T08:36:18.566Z,47.99
2023-09-02T08:38:46.314Z,47.69
2023-09-02T08:41:23.725Z,46.76
2023-09-02T08:43:56.767Z,46.47
2023-09-02T08:46:28.404Z,46.21
2023-09-02T08:49:00.060Z,44.42
2023-09-02T08:51:28.754Z,44.28
2023-09-02T08:53:57.865Z,44.93
2023-09-02T08:56:25.615Z,43.06
2023-09-02T08:58:56.706Z,45.25
2023-09-02T09:01:25.200Z,45.50
2023-09-02T09:03:57.586Z,43.02
2023-09-02T09:06:26.379Z,42.64
2023-09-02T09:08:56.236Z,42.38
2023-09-02T09:11:26.223Z,42.52
2023-09-02T09:13:56.245Z,43.66
2023-09-02T09:16:35.676Z,42.54
2023-09-02T09:19:04.379Z,44.32
2023-09-02T09:21:32.054Z,43.42
2023-09-02T09:23:59.422Z,41.84
2023-09-02T09:26:27.713Z,42.12
2023-09-02T09:28:57.706Z,41.86
2023-09-02T09:31:26.939Z,40.96
2023-09-02T09:34:05.906Z,40.45
2023-09-02T09:36:33.336Z,41.40
2023-09-02T09:39:09.329Z,41.36
2023-09-02T09:41:45.526Z,41.80
2023-09-02T09:44:18.342Z,38.67
2023-09-02T09:46:45.699Z,39.54
2023-09-02T09:49:27.021Z,39.51
2023-09-02T09:52:00.720Z,40.51
2023-09-02T09:54:53.605Z,37.04
2023-09-02T09:57:39.938Z,36.45
2023-09-02T10:00:08.460Z,37.58
2023-09-02T10:02:36.322Z,37.32
2023-09-02T10:05:04.054Z,36.90
2023-09-02T10:07:34.853Z,37.55
2023-09-02T10:10:05.243Z,39.23
2023-09-02T10:12:39.599Z,40.72
2023-09-02T10:15:08.600Z,38.91
2023-09-02T10:17:36.736Z,38.88
2023-09-02T10:20:05.448Z,37.66
2023-09-02T10:22:35.321Z,38.92
2023-09-02T10:25:18.533Z,36.24
2023-09-02T10:27:50.917Z,37.19
2023-09-02T10:30:33.905Z,36.65
2023-09-02T10:33:19.443Z,35.14
2023-09-02T10:35:58.441Z,36.43
2023-09-02T10:38:29.378Z,36.43
2023-09-02T10:41:17.826Z,39.22
2023-09-02T10:43:47.476Z,38.15
2023-09-02T10:46:14.936Z,38.54
2023-09-02T10:48:46.241Z,39.61
2023-09-02T10:51:15.292Z,39.53
2023-09-02T10:53:54.767Z,39.42
2023-09-02T10:56:32.979Z,39.71
2023-09-02T10:59:02.310Z,40.47
2023-09-02T11:01:50.308Z,41.05
2023-09-02T11:04:44.865Z,40.14
2023-09-02T11:07:23.559Z,38.57
2023-09-02T11:09:55.663Z,40.74
2023-09-02T11:12:24.195Z,40.96
2023-09-02T11:15:10.165Z,40.88
2023-09-02T11:17:39.697Z,39.96
2023-09-02T11:20:15.350Z,41.31
2023-09-02T11:23:03.308Z,41.43
2023-09-02T11:25:44.966Z,41.04
2023-09-02T11:28:18.730Z,38.95
2023-09-02T11:31:14.507Z,40.61
2023-09-02T11:33:46.702Z,38.97
2023-09-02T11:36:17.110Z,40.56
2023-09-02T11:38:44.880Z,39.62
2023-09-02T11:41:26.250Z,39.96
2023-09-02T11:43:55.433Z,39.22
2023-09-02T11:46:23.119Z,39.79
2023-09-02T11:48:50.627Z,37.08
2023-09-02T11:51:18.659Z,38.20
2023-09-02T11:53:48.019Z,36.54
2023-09-02T11:56:15.508Z,35.69
2023-09-02T11:58:43.196Z,35.58
2023-09-02T12:01:10.485Z,35.35
2023-09-02T12:03:40.655Z,35.46
2023-09-02T12:06:08.488Z,33.46
2023-09-02T12:08:36.305Z,33.29
2023-09-02T12:11:05.132Z,34.96
2023-09-02T12:13:33.474Z,33.19
2023-09-02T12:16:01.085Z,33.39
2023-09-02T12:18:29.262Z,33.02
2023-09-02T12:20:57.490Z,33.06
2023-09-02T12:23:25.073Z,32.78
2023-09-02T12:26:14.385Z,31.73
2023-09-02T12:28:50.441Z,31.50
2023-09-02T12:31:18.680Z,30.33
2023-09-02T12:33:53.364Z,29.59
2023-09-02T12:36:21.256Z,30.79
2023-09-02T12:38:52.929Z,31.67
2023-09-02T12:41:20.672Z,30.16
2023-09-02T12:43:48.148Z,30.52
2023-09-02T12:46:22.850Z,30.13
2023-09-02T12:48:50.651Z,31.72
2023-09-02T12:51:29.751Z,30.54
2023-09-02T12:53:58.397Z,29.92
2023-09-02T12:56:25.749Z,30.19
2023-09-02T12:58:53.086Z,30.09
2023-09-02T13:01:20.841Z,30.76
2023-09-02T13:03:48.245Z,28.86
2023-09-02T13:06:15.767Z,29.15
2023-09-02T13:08:44.623Z,29.27
2023-09-02T13:11:12.084Z,30.28
2023-09-02T13:13:39.533Z,29.32
2023-09-02T13:16:07.400Z,29.27
2023-09-02T13:18:34.895Z,30.84
2023-09-02T13:21:02.489Z,31.25
2023-09-02T13:23:33.338Z,31.29
2023-09-02T13:26:01.140Z,30.83
2023-09-02T13:28:30.502Z,31.13
2023-09-02T13:30:58.188Z,32.38
2023-09-02T13:33:25.674Z,33.46
2023-09-02T13:35:53.173Z,32.88
2023-09-02T13:38:24.712Z,32.90
2023-09-02T13:40:52.244Z,33.52
2023-09-02T13:43:23.000Z,33.16
2023-09-02T13:45:53.544Z,33.73
2023-09-02T13:48:22.868Z,33.57
2023-09-02T13:50:51.876Z,32.92
2023-09-02T13:53:20.982Z,33.25
2023-09-02T13:55:49.217Z,33.29
2023-09-02T13:58:23.490Z,33.23
2023-09-02T14:00:53.148Z,33.30
2023-09-02T14:03:24.887Z,33.10
2023-09-02T14:05:54.582Z,32.78
2023-09-02T14:08:35.199Z,32.76
2023-09-02T14:11:02.958Z,32.89
2023-09-02T14:13:41.970Z,32.96
2023-09-02T14:16:09.895Z,33.18
2023-09-02T14:18:37.843Z,33.40
2023-09-02T14:21:05.467Z,33.43
2023-09-02T14:23:35.631Z,34.03
2023-09-02T14:26:03.365Z,34.32
2023-09-02T14:28:32.285Z,33.25
2023-09-02T14:30:59.931Z,32.70
2023-09-02T14:33:27.689Z,32.10
2023-09-02T14:35:55.152Z,32.76
2023-09-02T14:38:23.604Z,32.91
2023-09-02T14:40:50.929Z,33.66
2023-09-02T14:43:18.629Z,33.37
2023-09-02T14:45:46.446Z,33.94
2023-09-02T14:48:14.130Z,33.99
2023-09-02T14:50:42.639Z,33.84
2023-09-02T14:53:10.527Z,34.69
2023-09-02T14:55:38.926Z,35.13
2023-09-02T14:58:06.415Z,37.10
2023-09-02T15:00:34.264Z,35.90
2023-09-02T15:03:02.599Z,36.88
2023-09-02T15:05:34.802Z,39.40
2023-09-02T15:08:04.008Z,36.68
2023-09-02T15:10:31.423Z,33.82
2023-09-02T15:13:03.640Z,32.85
2023-09-02T15:15:39.074Z,30.83
2023-09-02T15:18:22.904Z,32.51
2023-09-02T15:20:54.058Z,30.29
2023-09-02T15:23:22.388Z,30.64
2023-09-02T15:25:56.991Z,29.26
2023-09-02T15:28:24.847Z,29.14
2023-09-02T15:30:52.206Z,29.43
2023-09-02T15:33:21.732Z,28.81
2023-09-02T15:35:49.846Z,29.35
2023-09-02T15:38:19.347Z,31.18
2023-09-02T15:40:46.832Z,32.28
2023-09-02T15:43:14.585Z,31.93
2023-09-02T15:45:42.722Z,31.74
2023-09-02T15:48:10.243Z,30.52
2023-09-02T15:50:39.323Z,30.62
2023-09-02T15:53:06.782Z,31.32
2023-09-02T15:55:34.124Z,32.22
2023-09-02T15:58:01.749Z,32.76
2023-09-02T16:00:29.139Z,33.91
2023-09-02T16:02:57.369Z,33.94
2023-09-02T16:05:24.860Z,33.97
2023-09-02T16:07:52.233Z,34.65
2023-09-02T16:10:20.320Z,35.31
2023-09-02T16:12:47.710Z,35.73
2023-09-02T16:15:15.545Z,36.23
2023-09-02T16:17:43.488Z,36.40
2023-09-02T16:20:12.295Z,36.62
2023-09-02T16:22:41.461Z,37.60
2023-09-02T16:25:11.020Z,40.96
2023-09-02T16:27:39.647Z,37.64
2023-09-02T16:30:11.545Z,39.64
2023-09-02T16:32:39.637Z,38.69
2023-09-02T16:35:07.503Z,41.73
2023-09-02T16:37:42.130Z,37.65
2023-09-02T16:40:11.959Z,41.81
2023-09-02T16:42:41.508Z,42.07
2023-09-02T16:45:11.016Z,41.47
2023-09-02T16:47:44.290Z,42.11
2023-09-02T16:50:13.038Z,41.91
2023-09-02T16:52:43.528Z,43.62
2023-09-02T16:55:11.503Z,43.32
2023-09-02T16:57:44.402Z,41.82
2023-09-02T17:00:13.734Z,43.54
2023-09-02T17:02:51.401Z,43.51
2023-09-02T17:05:26.779Z,43.68
2023-09-02T17:07:55.411Z,43.15
2023-09-02T17:10:29.677Z,42.85
2023-09-02T17:12:58.358Z,44.85
2023-09-02T17:15:39.249Z,44.57
2023-09-02T17:18:09.522Z,45.94
2023-09-02T17:20:46.940Z,46.82
2023-09-02T17:23:16.361Z,46.09
2023-09-02T17:25:46.437Z,46.43
2023-09-02T17:28:20.790Z,45.43
2023-09-02T17:30:53.970Z,44.62
2023-09-02T17:33:21.408Z,43.46
2023-09-02T17:35:48.747Z,44.00
2023-09-02T17:38:16.450Z,46.11
2023-09-02T17:40:43.861Z,44.13
2023-09-02T17:43:11.240Z,46.39
2023-09-02T17:45:39.015Z,44.57
2023-09-02T17:48:06.687Z,44.91
2023-09-02T17:50:34.052Z,46.62
2023-09-02T17:53:02.200Z,47.10
2023-09-02T17:57:56.822Z,46.52
2023-09-02T18:00:24.644Z,46.55
2023-09-02T18:02:52.524Z,48.08
2023-09-02T18:05:20.026Z,47.32
2023-09-02T18:07:47.358Z,47.52
2023-09-02T18:10:15.189Z,48.31
2023-09-02T18:12:42.632Z,49.19
2023-09-02T18:15:10.916Z,49.30
2023-09-02T18:17:39.089Z,48.89
2023-09-02T18:20:07.995Z,48.38
2023-09-02T18:22:35.653Z,49.93
2023-09-02T18:25:03.604Z,49.24
2023-09-02T18:27:31.434Z,50.12
2023-09-02T18:29:58.958Z,50.24
2023-09-02T18:32:26.749Z,49.61
2023-09-02T18:34:54.382Z,50.00
2023-09-02T18:37:21.735Z,50.54
2023-09-02T18:39:50.642Z,51.27
2023-09-02T18:42:18.121Z,52.90
2023-09-02T18:44:45.560Z,52.41
2023-09-02T18:47:14.118Z,52.73
2023-09-02T18:49:41.566Z,53.68
2023-09-02T18:52:08.924Z,54.43
2023-09-02T18:54:36.576Z,53.37
2023-09-02T18:57:04.290Z,55.36
2023-09-02T18:59:33.440Z,54.97
2023-09-02T19:02:01.186Z,54.62
2023-09-02T19:04:28.560Z,55.10
2023-09-02T19:06:55.929Z,54.97
2023-09-02T19:09:23.723Z,54.41
2023-09-02T19:11:51.108Z,55.91
2023-09-02T19:14:18.884Z,55.17
2023-09-02T19:16:46.581Z,55.79
2023-09-02T19:19:14.055Z,58.01
2023-09-02T19:21:41.982Z,58.28
2023-09-02T19:24:09.678Z,57.09
2023-09-02T19:26:37.101Z,58.55
2023-09-02T19:29:04.741Z,57.69
2023-09-02T19:31:32.586Z,57.96
2023-09-02T19:33:59.851Z,58.62
2023-09-02T19:36:30.870Z,58.60
2023-09-02T19:38:59.437Z,58.07
2023-09-02T19:41:26.834Z,58.61
2023-09-02T19:43:54.154Z,57.71
2023-09-02T19:46:22.143Z,57.20
2023-09-02T19:48:49.536Z,56.73
2023-09-02T19:51:17.041Z,59.29
2023-09-02T19:53:44.949Z,60.72
2023-09-02T19:56:13.211Z,59.76
2023-09-02T19:58:49.900Z,60.18
2023-09-02T20:01:27.651Z,61.14
2023-09-02T20:03:55.786Z,61.41
2023-09-02T20:06:23.242Z,60.97
2023-09-02T20:08:50.614Z,60.96
2023-09-02T20:11:18.309Z,61.56
2023-09-02T20:13:45.732Z,62.22
2023-09-02T20:16:13.247Z,61.68
2023-09-02T20:18:41.596Z,61.71
2023-09-02T20:21:12.584Z,62.41
2023-09-02T20:23:39.936Z,63.01
2023-09-02T20:26:17.869Z,63.91
2023-09-02T20:28:45.219Z,63.01
2023-09-02T20:31:17.572Z,63.11
2023-09-02T20:33:50.362Z,63.69
2023-09-02T20:36:19.866Z,63.98
2023-09-02T20:38:47.752Z,64.14
2023-09-02T20:41:16.194Z,66.58
2023-09-02T20:43:46.700Z,65.85
2023-09-02T20:46:14.853Z,66.63
2023-09-02T20:48:43.038Z,66.39
2023-09-02T20:51:12.246Z,66.28
2023-09-02T20:53:41.860Z,65.21
2023-09-02T20:56:12.071Z,65.06
2023-09-02T20:58:40.669Z,65.23
2023-09-02T21:01:08.889Z,65.17
2023-09-02T21:03:37.192Z,66.05
2023-09-02T21:06:08.988Z,66.49
2023-09-02T21:08:36.705Z,70.74
2023-09-02T21:11:10.652Z,69.78
2023-09-02T21:13:40.497Z,68.72
2023-09-02T21:16:16.899Z,69.92
2023-09-02T21:18:45.041Z,70.35
2023-09-02T21:21:23.969Z,70.45
2023-09-02T21:23:51.939Z,69.96
2023-09-02T21:26:19.333Z,70.02
2023-09-02T21:28:52.329Z,69.15
2023-09-02T21:31:20.445Z,68.64
2023-09-02T21:33:51.284Z,69.28
2023-09-02T21:36:19.780Z,69.43
2023-09-02T21:38:49.523Z,68.78
2023-09-02T21:41:17.053Z,70.06
2023-09-02T21:43:44.596Z,71.04
2023-09-02T21:46:13.524Z,70.76
2023-09-02T21:48:41.273Z,69.79
2023-09-02T21:51:11.968Z,70.57
2023-09-02T21:53:41.029Z,70.30
2023-09-02T21:56:08.584Z,70.17
2023-09-02T21:58:35.930Z,70.02
2023-09-02T22:01:07.709Z,70.75
2023-09-02T22:03:36.650Z,70.20
2023-09-02T22:06:06.802Z,70.45
2023-09-02T22:08:34.762Z,70.68
2023-09-02T22:11:02.474Z,71.01
2023-09-02T22:13:30.175Z,69.96
2023-09-02T22:15:58.013Z,72.32
2023-09-02T22:18:26.705Z,72.56
2023-09-02T22:20:58.578Z,72.46
2023-09-02T22:23:29.085Z,71.93
2023-09-02T22:26:05.387Z,71.55
2023-09-02T22:28:37.551Z,72.05
2023-09-02T22:31:06.035Z,72.31
2023-09-02T22:33:34.218Z,72.41
2023-09-02T22:36:02.506Z,73.10
2023-09-02T22:38:54.662Z,73.35
2023-09-02T22:41:22.658Z,73.54
2023-09-02T22:43:50.029Z,73.66
2023-09-02T22:46:17.544Z,73.62
2023-09-02T22:48:45.366Z,73.05
2023-09-02T22:51:12.723Z,71.70
2023-09-02T22:53:41.431Z,72.73
2023-09-02T22:56:13.792Z,73.91
2023-09-02T22:58:41.237Z,74.15
2023-09-02T23:01:14.104Z,74.04
2023-09-02T23:03:45.454Z,74.22
2023-09-02T23:06:14.176Z,73.96
2023-09-02T23:08:46.224Z,74.11
2023-09-02T23:11:14.060Z,73.98
2023-09-02T23:13:43.721Z,73.43
2023-09-02T23:16:11.148Z,74.40
2023-09-02T23:18:39.019Z,75.12
2023-09-02T23:21:14.179Z,75.03
2023-09-02T23:23:42.100Z,75.39
2023-09-02T23:26:10.040Z,75.29
2023-09-02T23:28:37.893Z,75.70
2023-09-02T23:31:06.036Z,76.19
2023-09-02T23:33:33.878Z,76.29
2023-09-02T23:36:04.290Z,78.65
2023-09-02T23:38:32.459Z,77.12
2023-09-02T23:40:59.900Z,77.42
2023-09-02T23:43:27.265Z,77.54
2023-09-02T23:45:55.157Z,77.22
2023-09-02T23:48:22.861Z,77.67
2023-09-02T23:50:51.803Z,77.55
2023-09-02T23:53:19.560Z,76.24
2023-09-02T23:55:48.382Z,76.38
2023-09-02T23:58:16.155Z,77.92
